Time;durP1;ratioP1;P1;durP2;ratioP2;P2;SDS_P1;SDS_P2;PMS_P1;PMS_P2;Temp;Humidity;BMP_temperature;BMP_pressure;BME280_temperature;BME280_humidity;BME280_pressure;Samples;Min_cycle;Max_cycle;Signal;HPM_P1;HPM_P2
2022/03/04 00:01:31;;;;;;;20.47;12.07;;;7.20;80.40;;;;;;7337784;19;110691;-88
2022/03/04 00:03:59;;;;;;;15.55;11.57;;;7.20;80.30;;;;;;7338890;19;110569;-88
2022/03/04 00:06:26;;;;;;;17.97;12.27;;;7.20;80.30;;;;;;7335210;19;114081;-89
2022/03/04 00:08:53;;;;;;;19.10;12.20;;;7.20;80.40;;;;;;7337840;19;112406;-88
2022/03/04 00:11:20;;;;;;;17.73;12.33;;;7.20;80.40;;;;;;7337615;19;110604;-88
2022/03/04 00:13:49;;;;;;;19.07;12.50;;;7.10;80.30;;;;;;7337439;19;113023;-88
2022/03/04 00:16:16;;;;;;;22.87;12.00;;;7.10;80.30;;;;;;7345163;19;111440;-92
2022/03/04 00:18:43;;;;;;;22.43;12.73;;;7.20;80.40;;;;;;7339643;19;110600;-88
2022/03/04 00:21:10;;;;;;;18.67;11.53;;;7.10;80.30;;;;;;7344867;19;112527;-89
2022/03/04 00:23:38;;;;;;;17.57;12.17;;;7.10;80.30;;;;;;7343456;19;110094;-89
2022/03/04 00:26:05;;;;;;;18.20;12.03;;;7.10;80.30;;;;;;7347419;19;110586;-89
2022/03/04 00:28:32;;;;;;;17.23;11.70;;;7.10;80.30;;;;;;7346848;19;111473;-89
2022/03/04 00:31:00;;;;;;;22.83;12.77;;;7.00;80.30;;;;;;7344271;19;112664;-89
2022/03/04 00:33:27;;;;;;;21.60;13.40;;;7.00;80.20;;;;;;7346648;19;114744;-89
2022/03/04 00:35:55;;;;;;;19.07;11.87;;;6.90;80.20;;;;;;7352865;19;111609;-89
2022/03/04 00:38:22;;;;;;;21.20;12.13;;;6.80;80.20;;;;;;7345918;19;110684;-89
2022/03/04 00:40:49;;;;;;;18.03;12.07;;;6.70;80.30;;;;;;7348484;19;111614;-90
2022/03/04 00:43:17;;;;;;;18.70;12.37;;;6.70;80.50;;;;;;7346213;19;110153;-89
2022/03/04 00:45:45;;;;;;;21.20;12.10;;;6.70;80.50;;;;;;7348662;19;111285;-89
2022/03/04 00:48:12;;;;;;;17.77;11.87;;;6.60;80.60;;;;;;7346487;19;115283;-89
2022/03/04 00:50:39;;;;;;;19.43;12.30;;;6.60;80.80;;;;;;7344951;19;111275;-89
2022/03/04 00:53:06;;;;;;;20.57;12.00;;;6.50;80.90;;;;;;7346462;19;112493;-90
2022/03/04 00:55:37;;;;;;;18.83;12.17;;;6.50;81.10;;;;;;7344560;19;110721;-89
2022/03/04 00:58:06;;;;;;;17.67;12.53;;;6.40;81.20;;;;;;7353122;19;110293;-90
2022/03/04 01:00:34;;;;;;;19.17;12.97;;;6.40;81.40;;;;;;7347517;19;114774;-90
2022/03/04 01:03:03;;;;;;;19.10;12.90;;;6.30;81.40;;;;;;7345280;19;110298;-88
2022/03/04 01:05:31;;;;;;;19.93;11.80;;;6.30;81.60;;;;;;7346699;19;110313;-87
2022/03/04 01:07:58;;;;;;;21.80;12.73;;;6.30;81.50;;;;;;7347716;19;113358;-89
2022/03/04 01:10:25;;;;;;;23.13;13.03;;;6.20;81.40;;;;;;7343853;19;112811;-89
2022/03/04 01:12:52;;;;;;;23.17;12.17;;;6.20;81.50;;;;;;7348362;19;111353;-89
2022/03/04 01:15:19;;;;;;;18.93;12.13;;;6.10;81.70;;;;;;7344600;19;112588;-89
2022/03/04 01:17:47;;;;;;;23.10;12.17;;;6.00;81.70;;;;;;7347103;19;110399;-90
2022/03/04 01:20:15;;;;;;;19.50;12.93;;;5.90;81.80;;;;;;7348314;19;111478;-89
2022/03/04 01:22:42;;;;;;;20.53;12.27;;;5.90;81.80;;;;;;7345803;19;110958;-89
2022/03/04 01:25:10;;;;;;;18.60;12.40;;;5.90;82.00;;;;;;7346497;19;110700;-89
2022/03/04 01:27:38;;;;;;;18.80;12.43;;;5.80;82.10;;;;;;7346033;19;111060;-89
2022/03/04 01:30:07;;;;;;;17.07;12.17;;;5.70;82.60;;;;;;7344106;19;112750;-89
2022/03/04 01:32:35;;;;;;;19.47;12.10;;;5.60;83.00;;;;;;7346270;19;111533;-89
2022/03/04 01:35:04;;;;;;;18.87;12.57;;;5.50;83.30;;;;;;7344256;19;112578;-89
2022/03/04 01:37:31;;;;;;;19.00;12.83;;;5.50;83.40;;;;;;7344750;19;110888;-88
2022/03/04 01:39:58;;;;;;;18.97;12.40;;;5.50;83.50;;;;;;7346360;19;110756;-89
2022/03/04 01:42:25;;;;;;;18.33;12.93;;;5.40;83.40;;;;;;7351605;19;113086;-89
2022/03/04 01:44:52;;;;;;;18.17;12.80;;;5.40;83.30;;;;;;7345779;19;110567;-89
2022/03/04 01:47:19;;;;;;;17.60;12.87;;;5.40;83.10;;;;;;7346578;19;111110;-89
2022/03/04 01:49:47;;;;;;;24.70;14.13;;;5.40;83.00;;;;;;7346653;19;111881;-89
2022/03/04 01:52:14;;;;;;;22.70;13.40;;;5.30;83.00;;;;;;7344190;19;111824;-89
2022/03/04 01:54:41;;;;;;;21.80;12.07;;;5.20;82.90;;;;;;7343761;19;111056;-89
2022/03/04 01:57:09;;;;;;;25.77;13.20;;;5.20;82.90;;;;;;7345424;19;113716;-89
2022/03/04 01:59:36;;;;;;;22.53;12.83;;;5.20;83.00;;;;;;7344819;19;113865;-89
2022/03/04 02:02:04;;;;;;;20.67;13.40;;;5.10;83.20;;;;;;7345587;19;111870;-89
2022/03/04 02:04:31;;;;;;;22.80;12.97;;;5.10;83.40;;;;;;7351307;19;110286;-90
2022/03/04 02:06:58;;;;;;;22.03;12.50;;;5.00;83.70;;;;;;7344236;19;112717;-88
2022/03/04 02:09:25;;;;;;;19.53;12.43;;;5.00;83.90;;;;;;7343268;19;112839;-89
2022/03/04 02:11:52;;;;;;;25.13;13.40;;;4.90;84.10;;;;;;7342161;19;111893;-89
2022/03/04 02:14:19;;;;;;;23.67;12.73;;;4.90;84.20;;;;;;7345869;19;113793;-89
2022/03/04 02:16:54;;;;;;;21.30;13.00;;;4.90;84.10;;;;;;7345891;19;112905;-90
2022/03/04 02:19:22;;;;;;;22.63;13.37;;;4.90;84.10;;;;;;7345881;19;110423;-89
2022/03/04 02:21:58;;;;;;;22.60;14.00;;;4.80;84.30;;;;;;7345172;19;113684;-89
2022/03/04 02:24:27;;;;;;;26.90;14.83;;;4.70;85.30;;;;;;7345428;19;110320;-88
2022/03/04 02:26:57;;;;;;;23.90;14.67;;;4.60;85.90;;;;;;7351431;19;110393;-88
2022/03/04 02:29:26;;;;;;;23.07;14.83;;;4.50;86.00;;;;;;7343421;19;110901;-89
2022/03/04 02:31:53;;;;;;;27.27;14.60;;;4.40;86.30;;;;;;7342616;19;111824;-89
2022/03/04 02:34:21;;;;;;;29.33;15.60;;;4.50;86.10;;;;;;7345704;19;110748;-89
2022/03/04 02:36:49;;;;;;;24.57;14.30;;;4.50;86.10;;;;;;7344546;19;109841;-89
2022/03/04 02:39:17;;;;;;;25.57;13.73;;;4.50;86.00;;;;;;7343211;19;111021;-89
2022/03/04 02:41:44;;;;;;;26.90;15.60;;;4.50;85.90;;;;;;7344072;19;111034;-87
2022/03/04 02:44:12;;;;;;;26.20;15.03;;;4.50;85.80;;;;;;7342983;19;110227;-89
2022/03/04 02:46:40;;;;;;;21.23;13.23;;;4.50;85.70;;;;;;7349252;19;111589;-88
2022/03/04 02:49:09;;;;;;;21.87;12.90;;;4.40;85.90;;;;;;7343257;19;110511;-89
2022/03/04 02:51:37;;;;;;;21.30;12.87;;;4.40;86.40;;;;;;7343068;19;111745;-89
2022/03/04 02:54:05;;;;;;;21.80;13.13;;;4.40;86.80;;;;;;7343366;19;110741;-88
2022/03/04 02:56:32;;;;;;;19.83;13.07;;;4.30;87.40;;;;;;7340346;19;111244;-89
2022/03/04 02:58:59;;;;;;;18.63;12.43;;;4.30;87.10;;;;;;7343649;19;113508;-89
2022/03/04 03:01:26;;;;;;;18.93;12.43;;;4.30;86.80;;;;;;7339869;19;113158;-89
2022/03/04 03:03:54;;;;;;;24.37;13.17;;;4.30;86.80;;;;;;7344735;19;110110;-89
2022/03/04 03:06:21;;;;;;;23.53;13.60;;;4.20;87.40;;;;;;7342798;19;112174;-89
2022/03/04 03:08:48;;;;;;;20.47;12.33;;;4.20;87.10;;;;;;7345490;19;111864;-90
2022/03/04 03:11:15;;;;;;;20.80;12.20;;;4.20;87.20;;;;;;7340240;19;110876;-89
2022/03/04 03:13:42;;;;;;;22.63;13.33;;;4.20;87.40;;;;;;7344713;19;111607;-88
2022/03/04 03:16:09;;;;;;;21.37;12.47;;;4.10;87.30;;;;;;7340121;19;110664;-89
2022/03/04 03:18:37;;;;;;;21.73;12.93;;;4.10;87.30;;;;;;7341426;19;114063;-89
2022/03/04 03:21:04;;;;;;;20.20;12.60;;;4.10;87.20;;;;;;7338773;19;112300;-89
2022/03/04 03:23:31;;;;;;;20.73;12.47;;;4.10;87.20;;;;;;7340064;19;112407;-89
2022/03/04 03:25:58;;;;;;;21.07;12.70;;;4.10;87.00;;;;;;7341713;19;111329;-89
2022/03/04 03:28:26;;;;;;;21.50;12.57;;;4.10;86.90;;;;;;7342901;19;112059;-89
2022/03/04 03:30:53;;;;;;;19.50;12.17;;;4.00;86.90;;;;;;7346869;19;110243;-89
2022/03/04 03:33:20;;;;;;;21.83;12.33;;;4.00;87.10;;;;;;7341797;19;111546;-89
2022/03/04 03:35:48;;;;;;;22.27;12.40;;;4.00;87.20;;;;;;7341302;19;110089;-89
2022/03/04 03:38:15;;;;;;;20.50;12.20;;;4.00;87.30;;;;;;7340096;19;110637;-89
2022/03/04 03:40:42;;;;;;;19.17;11.70;;;4.00;87.50;;;;;;7342379;19;110882;-89
2022/03/04 03:43:29;;;;;;;30.93;13.13;;;3.90;87.80;;;;;;7343389;19;111798;-89
2022/03/04 03:45:57;;;;;;;22.70;12.53;;;3.90;88.80;;;;;;7341451;19;111941;-89
2022/03/04 03:48:24;;;;;;;22.83;12.53;;;3.80;88.70;;;;;;7342505;19;112395;-88
2022/03/04 03:50:51;;;;;;;16.97;11.57;;;3.80;88.90;;;;;;7340586;19;112903;-89
2022/03/04 03:53:18;;;;;;;18.03;11.70;;;3.80;88.80;;;;;;7349360;19;110402;-89
2022/03/04 03:55:45;;;;;;;22.03;12.17;;;3.80;88.90;;;;;;7349046;19;110533;-89
2022/03/04 03:58:13;;;;;;;19.27;11.97;;;3.80;88.90;;;;;;7348821;19;110646;-89
2022/03/04 04:00:40;;;;;;;19.73;12.23;;;3.80;89.00;;;;;;7348712;19;111754;-89
2022/03/04 04:03:08;;;;;;;18.80;11.97;;;3.80;88.80;;;;;;7348716;19;110569;-89
2022/03/04 04:05:35;;;;;;;22.23;12.70;;;3.80;88.70;;;;;;7349440;19;111455;-89
2022/03/04 04:08:02;;;;;;;21.63;12.10;;;3.80;89.00;;;;;;7350749;19;112492;-89
2022/03/04 04:10:29;;;;;;;19.23;11.30;;;3.80;89.10;;;;;;7348625;19;110429;-89
2022/03/04 04:12:56;;;;;;;24.57;12.33;;;3.70;89.20;;;;;;7349780;19;110273;-90
2022/03/04 04:15:23;;;;;;;18.00;12.43;;;3.60;90.20;;;;;;7354800;19;112121;-90
2022/03/04 04:17:51;;;;;;;25.70;13.20;;;3.40;90.60;;;;;;7347941;19;112423;-90
2022/03/04 04:20:18;;;;;;;18.87;12.10;;;3.30;90.80;;;;;;7349326;19;115315;-89
2022/03/04 04:22:45;;;;;;;22.30;13.50;;;3.30;91.20;;;;;;7350193;19;110605;-90
2022/03/04 04:25:12;;;;;;;21.03;12.87;;;3.20;91.30;;;;;;7347066;19;111174;-89
2022/03/04 04:27:39;;;;;;;21.30;12.37;;;3.10;91.50;;;;;;7348626;19;115621;-89
2022/03/04 04:30:07;;;;;;;19.20;12.30;;;3.00;91.90;;;;;;7348097;19;112664;-89
2022/03/04 04:32:34;;;;;;;24.93;12.47;;;3.10;91.60;;;;;;7348186;19;111699;-90
2022/03/04 04:35:01;;;;;;;19.87;12.13;;;3.10;91.60;;;;;;7349256;19;111920;-90
2022/03/04 04:37:28;;;;;;;18.53;12.73;;;3.20;91.30;;;;;;7351189;19;110624;-89
2022/03/04 04:39:55;;;;;;;21.03;12.07;;;3.30;91.60;;;;;;7347803;19;111161;-89
2022/03/04 04:42:23;;;;;;;17.20;11.87;;;3.40;91.10;;;;;;7347967;19;110949;-90
2022/03/04 04:44:50;;;;;;;25.57;12.10;;;3.40;91.00;;;;;;7346005;19;110816;-89
2022/03/04 04:47:17;;;;;;;21.13;12.57;;;3.50;90.90;;;;;;7349409;19;111373;-90
2022/03/04 04:49:44;;;;;;;20.20;11.67;;;3.50;90.80;;;;;;7347618;19;110427;-89
2022/03/04 04:52:11;;;;;;;21.80;12.70;;;3.50;90.90;;;;;;7348227;19;113876;-90
2022/03/04 04:54:38;;;;;;;30.23;12.50;;;3.50;90.80;;;;;;7346744;19;111459;-89
2022/03/04 04:57:06;;;;;;;18.83;12.23;;;3.50;90.80;;;;;;7350176;19;110110;-90
2022/03/04 04:59:33;;;;;;;20.53;11.87;;;3.50;90.80;;;;;;7347555;19;111849;-90
2022/03/04 05:02:01;;;;;;;17.33;11.70;;;3.50;90.90;;;;;;7344759;19;110138;-89
2022/03/04 05:04:28;;;;;;;21.87;12.40;;;3.50;91.20;;;;;;7345942;19;111969;-90
2022/03/04 05:06:56;;;;;;;19.63;11.57;;;3.50;90.90;;;;;;7344104;19;110931;-89
2022/03/04 05:09:23;;;;;;;20.80;12.80;;;3.50;91.00;;;;;;7346558;19;110579;-90
2022/03/04 05:11:50;;;;;;;20.00;11.93;;;3.40;91.00;;;;;;7349370;19;111420;-90
2022/03/04 05:14:17;;;;;;;21.70;12.97;;;3.40;91.10;;;;;;7347030;19;112565;-91
2022/03/04 05:16:44;;;;;;;21.43;12.00;;;3.30;91.20;;;;;;7347584;19;109996;-90
2022/03/04 05:19:11;;;;;;;22.77;13.17;;;3.30;91.20;;;;;;7351231;19;111752;-90
2022/03/04 05:21:39;;;;;;;20.90;12.13;;;3.30;91.30;;;;;;7346362;19;110867;-87
2022/03/04 05:24:07;;;;;;;22.80;13.03;;;3.30;91.30;;;;;;7345242;19;111948;-90
2022/03/04 05:26:38;;;;;;;25.03;12.93;;;3.30;91.30;;;;;;7341841;19;113266;-91
2022/03/04 05:29:11;;;;;;;23.63;12.67;;;3.30;91.40;;;;;;7343944;19;111143;-90
2022/03/04 05:31:41;;;;;;;21.27;11.60;;;3.40;91.30;;;;;;7343749;19;111872;-91
2022/03/04 05:34:08;;;;;;;23.30;11.73;;;3.30;91.10;;;;;;7342189;19;111139;-90
2022/03/04 05:36:39;;;;;;;19.10;12.07;;;3.30;91.20;;;;;;7343558;19;111949;-90
2022/03/04 05:39:07;;;;;;;20.63;12.50;;;3.30;91.30;;;;;;7342338;19;111667;-89
2022/03/04 05:41:34;;;;;;;24.30;12.67;;;3.20;91.50;;;;;;7348501;19;111150;-90
2022/03/04 05:44:03;;;;;;;22.03;12.17;;;3.20;91.60;;;;;;7343146;19;111619;-91
2022/03/04 05:46:32;;;;;;;25.80;13.00;;;3.20;91.50;;;;;;7342083;19;111534;-91
2022/03/04 05:49:00;;;;;;;23.60;13.30;;;3.20;91.40;;;;;;7344666;19;109895;-91
2022/03/04 05:51:27;;;;;;;23.10;12.80;;;3.20;91.40;;;;;;7341519;19;111695;-90
2022/03/04 05:53:55;;;;;;;23.20;12.37;;;3.20;91.40;;;;;;7343866;19;111330;-91
2022/03/04 05:56:22;;;;;;;23.27;12.30;;;3.20;91.50;;;;;;7345135;19;112884;-90
2022/03/04 05:58:50;;;;;;;19.63;12.27;;;3.20;91.40;;;;;;7343431;19;111441;-91
2022/03/04 06:01:17;;;;;;;20.80;11.87;;;3.20;91.40;;;;;;7345469;19;112336;-91
2022/03/04 06:03:44;;;;;;;22.47;12.13;;;3.10;91.40;;;;;;7348707;19;110615;-91
2022/03/04 06:06:13;;;;;;;23.03;11.93;;;3.10;91.20;;;;;;7346856;19;110575;-91
2022/03/04 06:08:41;;;;;;;23.23;13.10;;;3.10;91.30;;;;;;7344839;19;109943;-91
2022/03/04 06:11:09;;;;;;;31.97;13.13;;;3.10;91.30;;;;;;7343672;19;111396;-90
2022/03/04 06:13:37;;;;;;;24.17;12.67;;;3.00;91.40;;;;;;7345169;19;112676;-91
2022/03/04 06:16:05;;;;;;;22.83;13.13;;;2.90;91.20;;;;;;7343477;19;112472;-91
2022/03/04 06:18:32;;;;;;;25.23;13.80;;;2.90;91.30;;;;;;7341373;19;110042;-92
2022/03/04 06:21:00;;;;;;;23.10;12.80;;;2.80;91.40;;;;;;7345082;19;111242;-91
2022/03/04 06:23:27;;;;;;;23.53;12.60;;;2.80;91.40;;;;;;7342859;19;110196;-91
2022/03/04 06:25:55;;;;;;;24.07;13.37;;;2.70;91.50;;;;;;7352316;19;111482;-92
2022/03/04 06:28:24;;;;;;;25.67;12.53;;;2.80;91.60;;;;;;7347014;19;109806;-91
2022/03/04 06:30:52;;;;;;;27.80;12.40;;;2.70;91.70;;;;;;7347080;19;111647;-91
2022/03/04 06:33:32;;;;;;;23.70;13.13;;;2.70;91.70;;;;;;7347881;19;114064;-91
2022/03/04 06:36:05;;;;;;;19.57;12.77;;;2.80;91.90;;;;;;7351643;19;110047;-93
2022/03/04 06:38:34;;;;;;;21.80;12.17;;;2.70;91.90;;;;;;7361080;19;111813;-94
2022/03/04 06:41:14;;;;;;;22.73;12.50;;;2.70;92.00;;;;;;7345979;19;111471;-95
2022/03/04 06:43:42;;;;;;;22.93;12.83;;;2.70;91.90;;;;;;7372219;19;109755;-96
2022/03/04 06:46:09;;;;;;;26.57;13.80;;;2.70;92.10;;;;;;7365779;19;110172;-92
2022/03/04 06:48:37;;;;;;;26.40;12.70;;;2.80;92.20;;;;;;7354904;19;110577;-93
2022/03/04 06:51:04;;;;;;;27.93;14.00;;;2.80;92.20;;;;;;7350843;19;111395;-93
2022/03/04 06:53:32;;;;;;;28.97;13.97;;;2.80;92.30;;;;;;7357062;19;111054;-94
2022/03/04 06:55:59;;;;;;;35.13;14.23;;;2.90;92.30;;;;;;7353234;19;110044;-96
2022/03/04 06:58:26;;;;;;;24.50;12.87;;;2.90;92.50;;;;;;7349878;19;111834;-94
2022/03/04 07:00:55;;;;;;;27.07;12.73;;;2.90;92.50;;;;;;7347585;19;111513;-90
2022/03/04 07:03:23;;;;;;;27.00;13.10;;;3.00;92.80;;;;;;7344551;19;112344;-92
2022/03/04 07:05:51;;;;;;;22.70;12.97;;;3.00;92.80;;;;;;7347671;19;109908;-94
2022/03/04 07:08:18;;;;;;;23.57;13.13;;;3.00;93.00;;;;;;7353061;19;111054;-94
2022/03/04 07:10:45;;;;;;;24.83;12.70;;;3.10;93.10;;;;;;7344359;19;110814;-94
2022/03/04 07:13:13;;;;;;;33.07;13.87;;;3.10;93.00;;;;;;7345630;19;112397;-94
2022/03/04 07:15:40;;;;;;;33.10;13.87;;;3.10;92.90;;;;;;7344923;19;110252;-94
2022/03/04 07:18:07;;;;;;;26.67;13.17;;;3.20;93.00;;;;;;7343396;19;112721;-94
2022/03/04 07:20:35;;;;;;;36.27;14.00;;;3.30;93.10;;;;;;7343194;19;112122;-88
2022/03/04 07:23:03;;;;;;;32.30;13.40;;;3.40;93.40;;;;;;7338828;19;112495;-88
2022/03/04 07:25:30;;;;;;;34.07;13.77;;;3.40;93.40;;;;;;7341158;19;114416;-86
2022/03/04 07:27:57;;;;;;;29.30;13.33;;;3.50;93.60;;;;;;7334956;19;110424;-87
2022/03/04 07:30:25;;;;;;;25.47;12.70;;;3.60;93.80;;;;;;7344330;19;110360;-89
2022/03/04 07:32:52;;;;;;;28.37;13.17;;;3.60;94.10;;;;;;7337239;19;114536;-88
2022/03/04 07:35:19;;;;;;;39.20;14.10;;;3.70;94.00;;;;;;7339543;19;110038;-88
2022/03/04 07:37:46;;;;;;;37.70;14.67;;;3.70;94.10;;;;;;7337968;19;111672;-87
2022/03/04 07:40:15;;;;;;;43.80;15.10;;;3.80;94.20;;;;;;7338841;19;111739;-87
2022/03/04 07:42:42;;;;;;;38.23;14.37;;;4.00;94.10;;;;;;7339462;19;110804;-88
2022/03/04 07:45:11;;;;;;;32.77;14.57;;;4.10;94.00;;;;;;7341677;19;111695;-89
2022/03/04 07:47:41;;;;;;;35.37;14.23;;;4.10;93.90;;;;;;7340012;19;116001;-88
2022/03/04 07:50:11;;;;;;;34.07;14.63;;;4.30;93.70;;;;;;7341393;19;110212;-88
2022/03/04 07:52:39;;;;;;;27.53;14.50;;;4.30;93.70;;;;;;7345010;19;110856;-88
2022/03/04 07:55:12;;;;;;;31.20;13.77;;;4.40;93.90;;;;;;7341356;19;112255;-87
2022/03/04 07:57:40;;;;;;;30.03;14.53;;;4.50;94.10;;;;;;7336569;19;111929;-88
2022/03/04 08:00:10;;;;;;;32.33;13.97;;;4.50;94.20;;;;;;7336347;19;113702;-87
2022/03/04 08:02:41;;;;;;;36.80;14.80;;;4.60;94.10;;;;;;7338434;19;109901;-88
2022/03/04 08:05:10;;;;;;;34.17;13.57;;;4.70;94.20;;;;;;7338520;19;112180;-88
2022/03/04 08:07:38;;;;;;;32.77;14.70;;;4.80;94.00;;;;;;7336071;19;112219;-90
2022/03/04 08:10:07;;;;;;;24.27;13.63;;;4.90;93.90;;;;;;7342447;19;110125;-90
2022/03/04 08:12:34;;;;;;;27.20;13.83;;;5.00;93.90;;;;;;7343238;19;111680;-90
2022/03/04 08:15:02;;;;;;;33.80;14.67;;;5.10;93.70;;;;;;7348388;19;111194;-91
2022/03/04 08:17:30;;;;;;;29.90;13.47;;;5.30;93.50;;;;;;7340679;19;110822;-89
2022/03/04 08:19:58;;;;;;;31.63;13.87;;;5.40;93.30;;;;;;7339996;19;114561;-89
2022/03/04 08:22:25;;;;;;;27.67;13.87;;;5.40;93.10;;;;;;7340711;19;110114;-90
2022/03/04 08:24:53;;;;;;;28.50;14.03;;;5.50;93.00;;;;;;7337594;19;111481;-89
2022/03/04 08:27:21;;;;;;;28.27;13.80;;;5.60;93.00;;;;;;7338452;19;113406;-90
2022/03/04 08:29:48;;;;;;;28.43;13.53;;;5.70;93.20;;;;;;7341941;19;110753;-90
2022/03/04 08:32:16;;;;;;;26.10;13.73;;;5.80;93.10;;;;;;7343060;19;110415;-91
2022/03/04 08:34:44;;;;;;;24.63;13.77;;;6.00;92.80;;;;;;7340505;19;111789;-89
2022/03/04 08:37:11;;;;;;;24.37;13.37;;;6.10;92.70;;;;;;7346426;19;112163;-91
2022/03/04 08:39:38;;;;;;;29.73;13.73;;;6.30;92.40;;;;;;7343233;19;112217;-90
2022/03/04 08:42:07;;;;;;;24.57;12.90;;;6.40;92.30;;;;;;7347321;19;110453;-88
2022/03/04 08:44:34;;;;;;;23.30;13.67;;;6.70;92.00;;;;;;7347217;19;112126;-91
2022/03/04 08:47:02;;;;;;;23.70;12.63;;;6.90;91.20;;;;;;7347979;19;109878;-90
2022/03/04 08:49:29;;;;;;;25.20;12.13;;;7.00;90.90;;;;;;7342928;19;109926;-90
2022/03/04 08:51:56;;;;;;;22.00;13.00;;;7.10;90.70;;;;;;7346141;19;113809;-91
2022/03/04 08:54:23;;;;;;;20.87;13.30;;;7.10;90.30;;;;;;7347685;19;111835;-90
2022/03/04 08:56:51;;;;;;;21.20;12.57;;;7.30;90.40;;;;;;7348475;19;110876;-90
2022/03/04 08:59:18;;;;;;;23.37;13.07;;;7.30;90.80;;;;;;7355621;19;110575;-93
2022/03/04 09:01:45;;;;;;;23.90;12.97;;;7.40;91.10;;;;;;7350408;19;110417;-92
2022/03/04 09:04:14;;;;;;;21.50;12.87;;;7.50;90.10;;;;;;7349556;19;111991;-91
2022/03/04 09:06:41;;;;;;;21.40;11.67;;;7.60;90.60;;;;;;7349259;19;112439;-91
2022/03/04 09:09:08;;;;;;;21.73;11.97;;;7.90;88.70;;;;;;7347364;19;111415;-94
2022/03/04 09:11:35;;;;;;;22.20;12.90;;;7.90;90.20;;;;;;7351103;19;110813;-93
2022/03/04 09:14:06;;;;;;;25.73;14.27;;;7.90;90.00;;;;;;7350690;19;110771;-93
2022/03/04 09:16:33;;;;;;;18.73;11.80;;;7.90;90.00;;;;;;7350166;19;110200;-94
2022/03/04 09:19:00;;;;;;;27.90;11.57;;;8.10;89.00;;;;;;7353146;19;111484;-92
2022/03/04 09:21:28;;;;;;;27.87;12.77;;;8.10;88.60;;;;;;7350837;19;110750;-93
2022/03/04 09:23:55;;;;;;;22.93;12.90;;;8.30;87.30;;;;;;7349811;19;111427;-93
2022/03/04 09:26:23;;;;;;;23.37;12.87;;;8.30;88.10;;;;;;7349008;19;111858;-92
2022/03/04 09:28:50;;;;;;;19.87;11.53;;;8.60;87.40;;;;;;7348810;19;110961;-92
2022/03/04 09:31:17;;;;;;;21.23;12.37;;;8.60;87.60;;;;;;7349197;19;110324;-92
2022/03/04 09:33:44;;;;;;;23.93;12.43;;;8.70;86.30;;;;;;7348710;19;111278;-92
2022/03/04 09:36:14;;;;;;;22.50;12.30;;;8.70;87.90;;;;;;7349518;19;110320;-92
2022/03/04 09:38:42;;;;;;;23.80;13.03;;;8.80;85.90;;;;;;7348120;19;111645;-93
2022/03/04 09:41:10;;;;;;;30.00;12.10;;;8.90;87.10;;;;;;7353039;19;113337;-92
2022/03/04 09:43:39;;;;;;;20.17;11.57;;;9.00;85.30;;;;;;7346555;19;111403;-93
2022/03/04 09:46:07;;;;;;;22.00;12.43;;;9.20;84.10;;;;;;7344269;19;113740;-92
2022/03/04 09:48:39;;;;;;;21.73;12.50;;;9.40;82.20;;;;;;7348690;19;109953;-90
2022/03/04 09:51:08;;;;;;;20.43;12.90;;;9.50;83.10;;;;;;7346520;19;110834;-93
2022/03/04 09:53:35;;;;;;;21.90;11.43;;;9.50;83.90;;;;;;7345670;19;113603;-91
2022/03/04 09:56:03;;;;;;;25.03;12.47;;;9.60;83.80;;;;;;7346870;19;110507;-92
2022/03/04 09:58:30;;;;;;;18.10;12.07;;;9.80;80.80;;;;;;7346947;19;111467;-92
2022/03/04 10:00:58;;;;;;;21.73;13.17;;;9.80;81.50;;;;;;7349280;19;112410;-92
2022/03/04 10:03:31;;;;;;;20.43;12.17;;;9.80;82.90;;;;;;7353269;19;110658;-91
2022/03/04 10:06:00;;;;;;;19.27;12.73;;;9.90;81.30;;;;;;7346365;19;111782;-91
2022/03/04 10:08:27;;;;;;;20.05;12.00;;;10.00;80.50;;;;;;7347441;19;110817;-92
2022/03/04 10:10:58;;;;;;;19.42;12.80;;;10.20;79.80;;;;;;7346664;19;112020;-91
2022/03/04 10:13:40;;;;;;;21.17;13.35;;;10.10;81.70;;;;;;7346760;19;112168;-94
2022/03/04 10:16:08;;;;;;;23.23;13.40;;;10.10;80.40;;;;;;7347048;19;110219;-92
2022/03/04 10:18:36;;;;;;;20.15;12.57;;;10.00;81.30;;;;;;7346538;19;111321;-92
2022/03/04 10:21:03;;;;;;;24.85;13.63;;;10.10;81.80;;;;;;7346579;19;111236;-92
2022/03/04 10:23:30;;;;;;;19.38;12.82;;;10.20;81.20;;;;;;7347997;19;110613;-93
2022/03/04 10:26:01;;;;;;;17.48;11.25;;;10.40;80.70;;;;;;7350219;19;114225;-92
2022/03/04 10:28:32;;;;;;;23.80;12.60;;;10.70;79.60;;;;;;7346950;19;110135;-92
2022/03/04 10:30:59;;;;;;;24.80;12.35;;;10.80;75.80;;;;;;7346919;19;110534;-92
2022/03/04 10:33:46;;;;;;;17.57;12.70;;;10.70;78.80;;;;;;7347156;19;113873;-93
2022/03/04 10:36:14;;;;;;;18.48;11.95;;;10.80;78.50;;;;;;7347110;19;110049;-91
2022/03/04 10:38:42;;;;;;;19.35;12.13;;;10.90;78.00;;;;;;7345965;19;111798;-91
2022/03/04 10:41:23;;;;;;;16.50;11.25;;;11.10;76.10;;;;;;7346836;19;112606;-92
2022/03/04 10:43:51;;;;;;;16.05;11.00;;;11.30;75.50;;;;;;7348287;19;110020;-90
2022/03/04 10:46:19;;;;;;;17.23;11.35;;;11.20;75.80;;;;;;7342458;19;111214;-90
2022/03/04 10:48:57;;;;;;;19.65;12.13;;;11.70;74.80;;;;;;7351780;19;111881;-92
2022/03/04 10:51:40;;;;;;;18.67;11.88;;;11.60;74.00;;;;;;7343056;19;111767;-92
2022/03/04 10:54:17;;;;;;;22.00;11.20;;;11.50;74.60;;;;;;7345333;19;111798;-91
2022/03/04 10:56:54;;;;;;;15.85;11.07;;;11.70;71.60;;;;;;7345985;19;110268;-93
2022/03/04 10:59:22;;;;;;;17.48;12.07;;;11.70;73.90;;;;;;7344043;19;111723;-90
2022/03/04 11:01:54;;;;;;;19.30;11.65;;;11.80;74.60;;;;;;7341787;19;111818;-91
2022/03/04 11:04:23;;;;;;;19.00;11.15;;;11.90;71.90;;;;;;7342051;19;111451;-90
2022/03/04 11:06:50;;;;;;;18.23;11.48;;;12.30;69.50;;;;;;7341398;19;112560;-91
2022/03/04 11:09:24;;;;;;;19.27;11.77;;;12.10;69.30;;;;;;7350859;19;111835;-91
2022/03/04 11:11:53;;;;;;;18.15;11.05;;;12.10;72.60;;;;;;7343810;19;111474;-90
2022/03/04 11:14:21;;;;;;;19.95;11.55;;;12.40;69.70;;;;;;7343724;19;110545;-90
2022/03/04 11:16:50;;;;;;;27.67;12.23;;;12.30;70.00;;;;;;7345269;19;110141;-91
2022/03/04 11:19:18;;;;;;;19.52;11.65;;;12.50;72.60;;;;;;7344248;19;112002;-93
2022/03/04 11:21:46;;;;;;;17.23;11.25;;;12.60;69.10;;;;;;7345618;19;110034;-92
2022/03/04 11:24:13;;;;;;;19.85;12.18;;;12.40;68.70;;;;;;7346159;19;110154;-91
2022/03/04 11:26:44;;;;;;;19.73;11.77;;;12.40;69.70;;;;;;7343945;19;111389;-90
2022/03/04 11:29:37;;;;;;;16.90;12.02;;;12.60;71.00;;;;;;7344209;19;112259;-92
2022/03/04 11:32:06;;;;;;;18.73;12.77;;;12.60;71.10;;;;;;7351840;19;110379;-94
2022/03/04 11:34:46;;;;;;;17.83;12.30;;;12.60;71.40;;;;;;7341855;19;110735;-91
2022/03/04 11:37:18;;;;;;;16.02;10.45;;;12.80;70.00;;;;;;7342733;19;112238;-94
2022/03/04 11:40:33;;;;;;;17.58;11.40;;;13.20;68.30;;;;;;7341589;19;110570;-90
2022/03/04 11:42:59;;;;;;;17.45;12.35;;;13.20;68.20;;;;;;7340656;19;114641;-91
2022/03/04 11:45:37;;;;;;;20.00;11.95;;;13.10;68.70;;;;;;7341307;19;111419;-89
2022/03/04 11:48:08;;;;;;;;;;;13.20;70.30;;;;;;7341171;19;114752;-90
2022/03/04 11:50:42;;;;;;;22.67;12.25;;;13.30;69.60;;;;;;7347996;19;109316;-91
2022/03/04 11:53:16;;;;;;;13.93;10.73;;;13.40;70.10;;;;;;7341757;19;113261;-92
2022/03/04 11:56:15;;;;;;;15.45;10.65;;;13.50;70.00;;;;;;7350078;19;111530;-92
2022/03/04 11:58:54;;;;;;;15.27;10.90;;;13.80;68.30;;;;;;7344774;19;109859;-91
2022/03/04 12:01:33;;;;;;;14.90;10.65;;;13.90;66.50;;;;;;7348466;19;110693;-94
2022/03/04 12:04:20;;;;;;;14.68;11.23;;;13.90;67.00;;;;;;7347821;19;115009;-95
2022/03/04 12:07:07;;;;;;;13.60;10.63;;;14.00;65.80;;;;;;7346103;19;109714;-91
2022/03/04 12:09:35;;;;;;;15.32;10.57;;;14.20;66.50;;;;;;7345431;19;111479;-93
2022/03/04 12:12:20;;;;;;;21.25;10.68;;;14.20;65.50;;;;;;7343134;19;111797;-93
2022/03/04 12:14:48;;;;;;;16.00;11.23;;;14.40;65.10;;;;;;7343539;19;110070;-92
2022/03/04 12:17:16;;;;;;;16.83;10.75;;;14.60;62.90;;;;;;7345675;19;110623;-92
2022/03/04 12:19:44;;;;;;;14.82;11.55;;;14.70;64.00;;;;;;7353056;19;112095;-93
2022/03/04 12:22:13;;;;;;;15.07;10.35;;;14.80;62.80;;;;;;7349937;19;113481;-92
2022/03/04 12:25:01;;;;;;;16.90;11.95;;;15.10;60.40;;;;;;7350423;19;111872;-91
2022/03/04 12:27:53;;;;;;;15.10;10.60;;;15.10;60.60;;;;;;7349358;19;110241;-91
2022/03/04 12:30:22;;;;;;;12.70;10.32;;;15.20;60.90;;;;;;7349551;19;109955;-92
2022/03/04 12:32:51;;;;;;;14.85;10.25;;;15.20;59.80;;;;;;7347850;19;111993;-91
2022/03/04 12:35:20;;;;;;;13.00;9.20;;;15.30;58.30;;;;;;7347784;19;110267;-90